Time;durP1;ratioP1;P1;durP2;ratioP2;P2;SDS_P1;SDS_P2;PMS_P1;PMS_P2;Temp;Humidity;BMP_temperature;BMP_pressure;BME280_temperature;BME280_humidity;BME280_pressure;Samples;Min_cycle;Max_cycle;Signal;HPM_P1;HPM_P2
2021/08/13 00:01:00;;;;;;;6.75;6.05;;;;;;;;;;5094016;28;20244;-84
2021/08/13 00:03:28;;;;;;;7.13;6.05;;;;;;;;;;5093457;28;20294;-85
2021/08/13 00:05:55;;;;;;;7.22;6.10;;;;;;;;;;5095104;28;20178;-86
2021/08/13 00:08:21;;;;;;;8.38;6.25;;;;;;;;;;5095042;28;20217;-85
2021/08/13 00:10:49;;;;;;;9.07;6.80;;;;;;;;;;5093657;28;20237;-85
2021/08/13 00:13:16;;;;;;;8.52;6.30;;;;;;;;;;5093562;28;20255;-85
2021/08/13 00:15:43;;;;;;;7.22;6.43;;;;;;;;;;5093761;28;20216;-84
2021/08/13 00:18:10;;;;;;;7.13;6.10;;;;;;;;;;5094745;28;20242;-84
2021/08/13 00:20:38;;;;;;;7.38;6.10;;;;;;;;;;5093384;28;20629;-85
2021/08/13 00:23:05;;;;;;;6.93;6.32;;;;;;;;;;5093022;28;20271;-84
2021/08/13 00:25:31;;;;;;;6.82;6.18;;;;;;;;;;5093272;28;20593;-85
2021/08/13 00:27:58;;;;;;;8.45;6.45;;;;;;;;;;5093319;28;20225;-85
2021/08/13 00:30:25;;;;;;;9.73;6.38;;;;;;;;;;5093158;28;20245;-84
2021/08/13 00:32:51;;;;;;;22.50;11.15;;;;;;;;;;5093240;28;20239;-85
2021/08/13 00:35:18;;;;;;;19.52;11.27;;;;;;;;;;5093151;28;20723;-85
2021/08/13 00:37:46;;;;;;;14.90;9.18;;;;;;;;;;5093028;28;20661;-85
2021/08/13 00:40:14;;;;;;;13.35;9.52;;;;;;;;;;5092561;28;20206;-86
2021/08/13 00:42:41;;;;;;;9.55;8.32;;;;;;;;;;5092991;28;20190;-85
2021/08/13 00:45:08;;;;;;;10.55;8.35;;;;;;;;;;5092912;28;20228;-85
2021/08/13 00:47:35;;;;;;;14.02;8.48;;;;;;;;;;5092545;28;20263;-85
2021/08/13 00:50:01;;;;;;;10.23;7.80;;;;;;;;;;5093874;28;20305;-84
2021/08/13 00:52:28;;;;;;;8.95;6.55;;;;;;;;;;5094212;28;20597;-84
2021/08/13 00:54:57;;;;;;;9.10;6.57;;;;;;;;;;5092692;28;20226;-85
2021/08/13 00:57:24;;;;;;;7.60;6.68;;;;;;;;;;5092578;28;20556;-84
2021/08/13 00:59:51;;;;;;;7.43;6.15;;;;;;;;;;5093787;28;20233;-85
2021/08/13 01:02:18;;;;;;;7.72;6.60;;;;;;;;;;5093670;28;20229;-85
2021/08/13 01:04:44;;;;;;;9.00;6.50;;;;;;;;;;5093918;28;20244;-86
2021/08/13 01:07:11;;;;;;;9.13;6.55;;;;;;;;;;5092694;28;20594;-85
2021/08/13 01:09:38;;;;;;;6.63;6.03;;;;;;;;;;5092301;28;20262;-85
2021/08/13 01:12:10;;;;;;;7.22;6.20;;;;;;;;;;5092439;28;20226;-84
2021/08/13 01:14:41;;;;;;;7.20;5.88;;;;;;;;;;5092357;28;20190;-85
2021/08/13 01:17:09;;;;;;;8.48;6.50;;;;;;;;;;5091787;28;20295;-85
2021/08/13 01:19:40;;;;;;;7.53;6.40;;;;;;;;;;5092247;28;20670;-85
2021/08/13 01:22:10;;;;;;;7.32;6.45;;;;;;;;;;5091947;28;20201;-85
2021/08/13 01:24:41;;;;;;;9.07;6.93;;;;;;;;;;5093793;28;20247;-84
2021/08/13 01:27:10;;;;;;;13.50;7.88;;;;;;;;;;5091827;28;20266;-84
2021/08/13 01:29:41;;;;;;;13.57;7.00;;;;;;;;;;5093369;28;20241;-84
2021/08/13 01:32:26;;;;;;;11.25;7.38;;;;;;;;;;5091791;28;20597;-84
2021/08/13 01:34:59;;;;;;;11.23;7.90;;;;;;;;;;5093417;28;20178;-85
2021/08/13 01:37:28;;;;;;;9.45;7.47;;;;;;;;;;5093171;28;20661;-85
2021/08/13 01:39:58;;;;;;;11.48;7.00;;;;;;;;;;5091477;28;20218;-85
2021/08/13 01:42:25;;;;;;;7.85;6.65;;;;;;;;;;5091687;28;20636;-84
2021/08/13 01:44:55;;;;;;;8.30;7.25;;;;;;;;;;5092949;28;20244;-84
2021/08/13 01:47:22;;;;;;;8.07;6.68;;;;;;;;;;5091389;28;20198;-84
2021/08/13 01:49:49;;;;;;;7.38;6.57;;;;;;;;;;5091132;28;20252;-84
2021/08/13 01:52:17;;;;;;;8.65;6.85;;;;;;;;;;5093034;28;20225;-84
2021/08/13 01:54:44;;;;;;;7.50;6.50;;;;;;;;;;5091331;28;20226;-86
2021/08/13 01:57:11;;;;;;;7.05;6.22;;;;;;;;;;5092529;28;20217;-84
2021/08/13 01:59:38;;;;;;;13.07;7.50;;;;;;;;;;5090532;28;20220;-84
2021/08/13 02:02:05;;;;;;;7.07;6.45;;;;;;;;;;5090502;28;20206;-85
2021/08/13 02:04:32;;;;;;;6.40;5.80;;;;;;;;;;5092148;28;20717;-85
2021/08/13 02:06:59;;;;;;;10.82;6.50;;;;;;;;;;5090502;28;20225;-85
2021/08/13 02:09:28;;;;;;;7.32;6.47;;;;;;;;;;5092292;28;20202;-83
2021/08/13 02:11:54;;;;;;;7.10;6.50;;;;;;;;;;5090784;28;20225;-84
2021/08/13 02:14:21;;;;;;;9.32;7.15;;;;;;;;;;5090997;28;20185;-85
2021/08/13 02:16:51;;;;;;;9.60;7.07;;;;;;;;;;5092138;28;20245;-85
2021/08/13 02:19:21;;;;;;;8.85;6.30;;;;;;;;;;5092133;28;20746;-84
2021/08/13 02:21:49;;;;;;;8.93;6.30;;;;;;;;;;5090807;28;20198;-86
2021/08/13 02:24:17;;;;;;;10.18;6.47;;;;;;;;;;5090418;28;20205;-85
2021/08/13 02:26:45;;;;;;;9.13;6.63;;;;;;;;;;5092264;28;20205;-84
2021/08/13 02:29:14;;;;;;;6.45;5.93;;;;;;;;;;5092011;28;20202;-85
2021/08/13 02:31:41;;;;;;;10.98;7.00;;;;;;;;;;5090522;28;20244;-85
2021/08/13 02:34:08;;;;;;;7.78;6.88;;;;;;;;;;5091847;28;20210;-84
2021/08/13 02:36:37;;;;;;;7.38;6.65;;;;;;;;;;5090448;28;20202;-85
2021/08/13 02:39:04;;;;;;;8.30;6.68;;;;;;;;;;5090498;28;20243;-85
2021/08/13 02:41:32;;;;;;;7.75;7.05;;;;;;;;;;5091488;28;20201;-84
2021/08/13 02:44:02;;;;;;;22.85;7.53;;;;;;;;;;5089431;28;20206;-85
2021/08/13 02:46:31;;;;;;;9.13;7.28;;;;;;;;;;5091552;28;20212;-85
2021/08/13 02:48:58;;;;;;;7.55;6.72;;;;;;;;;;5090338;28;20224;-85
2021/08/13 02:51:27;;;;;;;7.88;7.18;;;;;;;;;;5091238;28;20245;-85
2021/08/13 02:53:55;;;;;;;7.95;7.15;;;;;;;;;;5073133;28;20669;-85
2021/08/13 02:56:25;;;;;;;8.57;7.15;;;;;;;;;;5090236;28;20275;-85
2021/08/13 02:58:55;;;;;;;12.57;7.70;;;;;;;;;;5090371;28;20225;-85
2021/08/13 03:01:24;;;;;;;10.10;7.63;;;;;;;;;;5091672;28;20174;-85
2021/08/13 03:03:52;;;;;;;9.20;7.40;;;;;;;;;;5072695;28;20230;-84
2021/08/13 03:06:19;;;;;;;10.32;7.70;;;;;;;;;;5090180;28;20270;-85
2021/08/13 03:08:46;;;;;;;9.65;7.90;;;;;;;;;;5091811;28;20200;-85
2021/08/13 03:11:14;;;;;;;10.80;7.88;;;;;;;;;;5091583;28;20213;-85
2021/08/13 03:13:41;;;;;;;9.50;8.10;;;;;;;;;;5091961;28;20680;-84
2021/08/13 03:16:08;;;;;;;8.43;7.63;;;;;;;;;;5095530;28;20415;-85
2021/08/13 03:18:36;;;;;;;12.77;8.60;;;;;;;;;;5093963;28;20205;-85
2021/08/13 03:21:03;;;;;;;9.05;8.05;;;;;;;;;;5095682;28;20252;-84
2021/08/13 03:23:30;;;;;;;9.23;7.68;;;;;;;;;;5094706;28;20200;-84
2021/08/13 03:25:57;;;;;;;7.75;6.93;;;;;;;;;;5094341;28;20219;-84
2021/08/13 03:28:24;;;;;;;9.80;7.65;;;;;;;;;;5095457;28;20649;-83
2021/08/13 03:30:51;;;;;;;9.82;7.00;;;;;;;;;;5095776;28;20201;-85
2021/08/13 03:33:18;;;;;;;7.55;6.90;;;;;;;;;;5095805;28;20770;-82
2021/08/13 03:35:46;;;;;;;8.13;7.32;;;;;;;;;;5095265;28;20205;-82
2021/08/13 03:38:13;;;;;;;14.85;8.82;;;;;;;;;;5095479;28;20202;-84
2021/08/13 03:40:39;;;;;;;10.73;8.35;;;;;;;;;;5095190;28;20201;-83
2021/08/13 03:43:06;;;;;;;9.95;8.45;;;;;;;;;;5095459;28;20198;-82
2021/08/13 03:45:33;;;;;;;16.88;10.40;;;;;;;;;;5096130;28;20209;-83
2021/08/13 03:48:00;;;;;;;17.45;10.07;;;;;;;;;;5094796;28;20203;-83
2021/08/13 03:50:26;;;;;;;12.05;9.77;;;;;;;;;;5093561;28;20663;-85
2021/08/13 03:52:54;;;;;;;13.15;9.40;;;;;;;;;;5093994;28;20790;-87
2021/08/13 03:55:21;;;;;;;12.50;9.52;;;;;;;;;;5096002;28;20558;-88
2021/08/13 03:57:48;;;;;;;10.82;9.32;;;;;;;;;;5094837;28;20211;-86
2021/08/13 04:00:15;;;;;;;15.65;10.50;;;;;;;;;;5094691;28;20205;-87
2021/08/13 04:02:42;;;;;;;11.23;9.70;;;;;;;;;;5093822;28;20567;-87
2021/08/13 04:05:09;;;;;;;12.80;9.57;;;;;;;;;;5094905;28;20213;-86
2021/08/13 04:07:36;;;;;;;21.67;10.23;;;;;;;;;;5092932;28;20662;-86
2021/08/13 04:10:04;;;;;;;16.60;9.15;;;;;;;;;;5093377;28;20229;-86
2021/08/13 04:12:31;;;;;;;10.60;9.20;;;;;;;;;;5093269;28;20294;-85
2021/08/13 04:14:58;;;;;;;20.38;9.68;;;;;;;;;;5094862;28;20201;-87
2021/08/13 04:17:24;;;;;;;11.88;9.90;;;;;;;;;;5092909;28;20219;-85
2021/08/13 04:19:51;;;;;;;12.85;10.20;;;;;;;;;;5093630;28;20202;-85
2021/08/13 04:22:18;;;;;;;14.55;10.20;;;;;;;;;;5093942;28;20206;-87
2021/08/13 04:24:45;;;;;;;13.60;10.40;;;;;;;;;;5094239;28;20237;-87
2021/08/13 04:27:13;;;;;;;12.45;9.60;;;;;;;;;;5094492;28;20190;-87
2021/08/13 04:29:39;;;;;;;11.10;9.88;;;;;;;;;;5095361;28;20233;-88
2021/08/13 04:32:06;;;;;;;10.57;9.48;;;;;;;;;;5097819;28;20259;-90
2021/08/13 04:34:33;;;;;;;14.35;9.02;;;;;;;;;;5098645;28;20182;-90
2021/08/13 04:37:01;;;;;;;11.80;9.77;;;;;;;;;;5100188;28;20186;-91
2021/08/13 04:39:27;;;;;;;15.68;9.70;;;;;;;;;;5098335;28;20200;-86
2021/08/13 04:41:54;;;;;;;12.10;9.95;;;;;;;;;;5096355;28;20194;-89
2021/08/13 04:44:22;;;;;;;13.55;10.75;;;;;;;;;;5094996;28;20178;-87
2021/08/13 04:46:49;;;;;;;16.73;10.18;;;;;;;;;;5093706;28;20194;-85
2021/08/13 04:49:15;;;;;;;12.68;10.25;;;;;;;;;;5093652;28;20667;-87
2021/08/13 04:51:42;;;;;;;16.60;10.30;;;;;;;;;;5092087;28;20275;-90
2021/08/13 04:54:10;;;;;;;15.38;10.00;;;;;;;;;;5094400;28;20247;-86
2021/08/13 04:56:37;;;;;;;15.15;9.90;;;;;;;;;;5093342;28;20189;-85
2021/08/13 04:59:04;;;;;;;13.07;10.00;;;;;;;;;;5093031;28;20201;-85
2021/08/13 05:01:32;;;;;;;11.70;10.18;;;;;;;;;;5091237;28;20635;-86
2021/08/13 05:03:58;;;;;;;11.45;10.07;;;;;;;;;;5073980;28;20226;-85
2021/08/13 05:06:25;;;;;;;12.93;9.98;;;;;;;;;;5077259;28;20217;-92
2021/08/13 05:08:52;;;;;;;12.45;10.43;;;;;;;;;;5075591;28;20187;-86
2021/08/13 05:11:18;;;;;;;13.15;9.93;;;;;;;;;;5074962;28;20190;-84
2021/08/13 05:13:45;;;;;;;11.73;10.10;;;;;;;;;;5075094;28;20273;-90
2021/08/13 05:16:12;;;;;;;14.70;10.55;;;;;;;;;;5075415;28;20205;-90
2021/08/13 05:18:40;;;;;;;14.65;11.05;;;;;;;;;;5087215;28;20174;-89
2021/08/13 05:21:07;;;;;;;12.85;10.60;;;;;;;;;;5092543;28;20198;-88
2021/08/13 05:23:33;;;;;;;13.80;10.73;;;;;;;;;;5093662;28;20198;-89
2021/08/13 05:26:00;;;;;;;13.27;10.55;;;;;;;;;;5086775;28;20216;-88
2021/08/13 05:28:27;;;;;;;28.83;10.43;;;;;;;;;;5073695;28;20574;-87
2021/08/13 05:30:54;;;;;;;17.58;10.80;;;;;;;;;;5073096;28;20727;-86
2021/08/13 05:33:20;;;;;;;11.57;10.45;;;;;;;;;;5073178;28;20759;-86
2021/08/13 05:35:48;;;;;;;13.82;10.25;;;;;;;;;;5073221;28;20670;-87
2021/08/13 05:38:15;;;;;;;11.70;10.20;;;;;;;;;;5069876;28;20211;-86
2021/08/13 05:40:42;;;;;;;15.90;11.52;;;;;;;;;;5072582;28;20245;-84
2021/08/13 05:43:09;;;;;;;18.80;12.65;;;;;;;;;;5072385;28;20213;-84
2021/08/13 05:45:35;;;;;;;16.30;12.15;;;;;;;;;;5071050;28;20240;-84
2021/08/13 05:48:02;;;;;;;14.18;11.27;;;;;;;;;;5072782;28;20242;-85
2021/08/13 05:50:29;;;;;;;22.48;11.55;;;;;;;;;;5074704;28;20237;-90
2021/08/13 05:52:57;;;;;;;16.08;11.05;;;;;;;;;;5073284;28;20230;-86
2021/08/13 05:55:24;;;;;;;15.00;11.73;;;;;;;;;;5072896;28;20233;-85
2021/08/13 05:57:51;;;;;;;16.90;11.40;;;;;;;;;;5072392;28;20186;-85
2021/08/13 06:00:19;;;;;;;14.65;12.15;;;;;;;;;;5070777;28;20265;-85
2021/08/13 06:02:52;;;;;;;14.23;11.48;;;;;;;;;;5105260;28;20632;-87
2021/08/13 06:05:19;;;;;;;13.07;11.25;;;;;;;;;;5073262;28;20592;-87
2021/08/13 06:07:46;;;;;;;17.55;11.55;;;;;;;;;;5073076;28;20230;-87
2021/08/13 06:10:14;;;;;;;15.15;11.77;;;;;;;;;;5072698;28;20643;-85
2021/08/13 06:12:40;;;;;;;15.65;12.27;;;;;;;;;;5071151;28;20333;-83
2021/08/13 06:15:07;;;;;;;17.35;11.30;;;;;;;;;;5071114;28;20190;-84
2021/08/13 06:17:34;;;;;;;12.82;11.23;;;;;;;;;;5105153;28;20222;-85
2021/08/13 06:20:01;;;;;;;15.10;12.25;;;;;;;;;;5072422;28;20181;-83
2021/08/13 06:22:28;;;;;;;14.63;12.52;;;;;;;;;;5071171;28;20257;-86
2021/08/13 06:24:54;;;;;;;16.98;11.50;;;;;;;;;;5071190;28;20187;-86
2021/08/13 06:27:23;;;;;;;16.48;12.48;;;;;;;;;;5070968;28;20562;-86
2021/08/13 06:29:49;;;;;;;13.30;11.90;;;;;;;;;;5070717;28;20253;-84
2021/08/13 06:32:16;;;;;;;15.45;11.65;;;;;;;;;;5072087;28;20214;-84
2021/08/13 06:34:42;;;;;;;13.93;11.85;;;;;;;;;;5071539;28;20230;-85
2021/08/13 06:37:09;;;;;;;12.70;10.88;;;;;;;;;;5080738;28;20224;-85
2021/08/13 06:39:36;;;;;;;12.45;11.15;;;;;;;;;;5089723;28;20217;-85
2021/08/13 06:42:03;;;;;;;12.95;11.48;;;;;;;;;;5091090;28;20244;-84
2021/08/13 06:44:31;;;;;;;12.45;11.25;;;;;;;;;;5090224;28;20208;-85
2021/08/13 06:46:57;;;;;;;12.50;11.25;;;;;;;;;;5089531;28;20283;-84
2021/08/13 06:49:24;;;;;;;14.20;11.48;;;;;;;;;;5089368;28;20255;-84
2021/08/13 06:51:51;;;;;;;12.25;10.95;;;;;;;;;;5089524;28;20721;-84
2021/08/13 06:54:18;;;;;;;12.25;10.50;;;;;;;;;;5089262;28;20722;-83
2021/08/13 06:56:44;;;;;;;13.00;11.60;;;;;;;;;;5089033;28;20221;-84
2021/08/13 06:59:11;;;;;;;11.45;10.25;;;;;;;;;;5089347;28;20236;-84
2021/08/13 07:01:39;;;;;;;11.35;9.95;;;;;;;;;;5088887;28;20633;-84
2021/08/13 07:04:06;;;;;;;12.43;10.57;;;;;;;;;;5088763;28;20257;-84
2021/08/13 07:06:32;;;;;;;13.45;10.85;;;;;;;;;;5090981;28;20211;-84
2021/08/13 07:09:00;;;;;;;10.23;9.25;;;;;;;;;;5088934;28;20238;-84
2021/08/13 07:11:27;;;;;;;10.75;9.40;;;;;;;;;;5089157;28;20233;-84
2021/08/13 07:13:53;;;;;;;14.40;9.00;;;;;;;;;;5088860;28;20689;-84
2021/08/13 07:16:20;;;;;;;10.40;8.40;;;;;;;;;;5089247;28;20229;-85
2021/08/13 07:18:48;;;;;;;10.90;9.27;;;;;;;;;;5089020;28;20221;-84
2021/08/13 07:21:15;;;;;;;13.38;9.48;;;;;;;;;;5089033;28;20225;-83
2021/08/13 07:23:41;;;;;;;10.50;9.15;;;;;;;;;;5089113;28;20224;-84
2021/08/13 07:26:08;;;;;;;13.90;10.05;;;;;;;;;;5090331;28;20205;-84
2021/08/13 07:28:35;;;;;;;10.95;9.55;;;;;;;;;;5088926;28;20657;-85
2021/08/13 07:31:03;;;;;;;10.85;9.70;;;;;;;;;;5088538;28;20693;-85
2021/08/13 07:33:29;;;;;;;11.93;8.68;;;;;;;;;;5088775;28;20733;-85
2021/08/13 07:35:57;;;;;;;12.27;9.48;;;;;;;;;;5088551;28;20243;-83
2021/08/13 07:38:24;;;;;;;11.00;8.73;;;;;;;;;;5090603;28;20237;-84
2021/08/13 07:40:51;;;;;;;10.43;9.38;;;;;;;;;;5089479;28;20217;-84
2021/08/13 07:43:17;;;;;;;10.38;9.30;;;;;;;;;;5088195;28;20210;-84
2021/08/13 07:45:45;;;;;;;11.95;8.90;;;;;;;;;;5090098;28;20240;-84
2021/08/13 07:48:12;;;;;;;9.80;8.90;;;;;;;;;;5088933;28;20286;-83
2021/08/13 07:50:38;;;;;;;10.18;8.98;;;;;;;;;;5088719;28;20306;-84
2021/08/13 07:53:07;;;;;;;11.40;9.13;;;;;;;;;;5088797;28;20229;-83
2021/08/13 07:55:35;;;;;;;9.80;8.80;;;;;;;;;;5087684;28;20278;-83
2021/08/13 07:58:01;;;;;;;13.15;10.30;;;;;;;;;;5090225;28;20225;-83
2021/08/13 08:00:28;;;;;;;12.55;10.15;;;;;;;;;;5123562;27;20598;-83
2021/08/13 08:02:55;;;;;;;10.98;8.52;;;;;;;;;;5093603;28;20256;-84
2021/08/13 08:05:21;;;;;;;12.05;9.20;;;;;;;;;;5092731;28;20198;-83
2021/08/13 08:07:48;;;;;;;9.85;8.95;;;;;;;;;;5092543;28;20233;-83
2021/08/13 08:10:16;;;;;;;10.13;9.20;;;;;;;;;;5093484;28;20675;-83
2021/08/13 08:12:43;;;;;;;10.32;9.32;;;;;;;;;;5093386;28;20241;-86
2021/08/13 08:15:10;;;;;;;11.30;10.10;;;;;;;;;;5091894;28;20237;-85
2021/08/13 08:17:37;;;;;;;9.25;8.45;;;;;;;;;;5092084;28;20271;-83
2021/08/13 08:20:04;;;;;;;9.95;8.73;;;;;;;;;;5091694;28;20190;-83
2021/08/13 08:22:31;;;;;;;10.57;9.38;;;;;;;;;;5091676;28;20233;-83
2021/08/13 08:24:57;;;;;;;10.23;9.23;;;;;;;;;;5091664;28;20206;-82
2021/08/13 08:27:25;;;;;;;10.88;9.27;;;;;;;;;;5093205;28;20202;-83
2021/08/13 08:29:52;;;;;;;10.55;9.15;;;;;;;;;;5092289;28;20221;-84
2021/08/13 08:32:19;;;;;;;13.98;10.18;;;;;;;;;;5091323;28;20621;-83
2021/08/13 08:34:45;;;;;;;11.10;10.00;;;;;;;;;;5094200;28;20225;-84
2021/08/13 08:37:12;;;;;;;9.63;8.63;;;;;;;;;;5092346;28;20233;-82
2021/08/13 08:39:39;;;;;;;10.10;9.10;;;;;;;;;;5091898;28;20233;-82
2021/08/13 08:42:10;;;;;;;13.55;11.00;;;;;;;;;;5092883;28;20237;-83
2021/08/13 08:44:38;;;;;;;13.68;9.98;;;;;;;;;;5091446;28;20237;-83
2021/08/13 08:47:05;;;;;;;9.55;8.65;;;;;;;;;;5093627;28;20233;-82
2021/08/13 08:49:32;;;;;;;10.20;9.20;;;;;;;;;;5093112;28;20213;-83
2021/08/13 08:51:59;;;;;;;11.93;9.00;;;;;;;;;;5091778;28;20240;-83
2021/08/13 08:54:27;;;;;;;10.63;9.63;;;;;;;;;;5091302;28;20249;-83
2021/08/13 08:56:54;;;;;;;12.70;9.93;;;;;;;;;;5092875;28;20213;-82
2021/08/13 08:59:22;;;;;;;11.45;9.65;;;;;;;;;;5091357;28;20229;-81
2021/08/13 09:01:50;;;;;;;11.23;9.10;;;;;;;;;;5093513;28;20244;-82
2021/08/13 09:04:16;;;;;;;10.45;9.07;;;;;;;;;;5091009;28;20257;-82
2021/08/13 09:06:43;;;;;;;9.95;8.95;;;;;;;;;;5093174;28;20209;-84
2021/08/13 09:09:10;;;;;;;11.00;9.18;;;;;;;;;;5091911;28;20210;-82
2021/08/13 09:11:38;;;;;;;9.88;8.88;;;;;;;;;;5092123;28;20223;-83
2021/08/13 09:14:06;;;;;;;10.43;9.27;;;;;;;;;;5094243;28;20248;-83
2021/08/13 09:16:33;;;;;;;12.13;8.88;;;;;;;;;;5092200;28;20331;-82
2021/08/13 09:19:02;;;;;;;9.88;8.90;;;;;;;;;;5093380;28;20214;-82
2021/08/13 09:21:29;;;;;;;9.45;8.50;;;;;;;;;;5091917;28;20201;-83
2021/08/13 09:23:59;;;;;;;13.77;9.90;;;;;;;;;;5092215;28;20209;-83
2021/08/13 09:26:26;;;;;;;10.20;9.00;;;;;;;;;;5091870;28;20197;-82
2021/08/13 09:28:53;;;;;;;11.57;9.27;;;;;;;;;;5091897;28;20193;-83
2021/08/13 09:31:23;;;;;;;8.82;7.30;;;;;;;;;;5091927;28;20657;-83
2021/08/13 09:33:50;;;;;;;8.93;7.40;;;;;;;;;;5091804;28;20209;-81
2021/08/13 09:36:19;;;;;;;8.07;7.35;;;;;;;;;;5091982;28;20233;-82
2021/08/13 09:38:47;;;;;;;10.13;7.00;;;;;;;;;;5091835;28;20197;-82
2021/08/13 09:41:17;;;;;;;8.43;7.57;;;;;;;;;;5093321;28;20643;-82
2021/08/13 09:43:53;;;;;;;7.82;7.13;;;;;;;;;;5091940;28;20731;-83
2021/08/13 09:46:20;;;;;;;9.18;7.25;;;;;;;;;;5093074;28;20628;-80
2021/08/13 09:48:47;;;;;;;9.50;6.97;;;;;;;;;;5091222;28;20237;-80
2021/08/13 09:51:34;;;;;;;7.20;6.60;;;;;;;;;;5092728;28;20224;-81
2021/08/13 09:54:01;;;;;;;9.23;7.20;;;;;;;;;;5093033;28;20745;-80
2021/08/13 09:56:28;;;;;;;8.63;7.28;;;;;;;;;;5092773;28;20245;-80
2021/08/13 09:59:06;;;;;;;8.35;6.78;;;;;;;;;;5091346;28;20658;-81
2021/08/13 10:01:37;;;;;;;6.95;6.25;;;;;;;;;;5091312;28;20219;-82
2021/08/13 10:04:04;;;;;;;17.90;6.75;;;;;;;;;;5092064;28;20253;-82
2021/08/13 10:06:31;;;;;;;8.77;6.85;;;;;;;;;;5090707;28;20611;-82
2021/08/13 10:08:59;;;;;;;7.82;6.03;;;;;;;;;;5090684;28;20569;-82
2021/08/13 10:11:27;;;;;;;9.02;6.38;;;;;;;;;;5090996;28;20202;-83
2021/08/13 10:13:54;;;;;;;6.82;5.93;;;;;;;;;;5090834;28;20225;-83
2021/08/13 10:16:22;;;;;;;8.57;6.10;;;;;;;;;;5092300;28;20265;-83
2021/08/13 10:18:49;;;;;;;8.73;6.68;;;;;;;;;;5092171;28;20234;-81
2021/08/13 10:21:15;;;;;;;7.63;6.35;;;;;;;;;;5091011;28;20509;-85
2021/08/13 10:23:42;;;;;;;11.63;6.13;;;;;;;;;;5090221;28;20205;-85
2021/08/13 10:26:11;;;;;;;8.88;6.05;;;;;;;;;;5090687;28;20233;-85
2021/08/13 10:28:38;;;;;;;7.07;6.38;;;;;;;;;;5090779;28;20589;-81
2021/08/13 10:31:05;;;;;;;8.73;5.95;;;;;;;;;;5092072;28;20245;-83
2021/08/13 10:33:31;;;;;;;8.07;6.68;;;;;;;;;;5090557;28;20327;-83
2021/08/13 10:35:58;;;;;;;10.05;5.95;;;;;;;;;;5090302;28;20267;-84
2021/08/13 10:38:27;;;;;;;6.60;6.00;;;;;;;;;;5090235;28;20452;-80
2021/08/13 10:40:54;;;;;;;6.88;5.70;;;;;;;;;;5090001;28;20254;-83
2021/08/13 10:43:30;;;;;;;6.88;5.78;;;;;;;;;;5092048;28;20205;-82
2021/08/13 10:45:57;;;;;;;6.47;5.82;;;;;;;;;;5090299;28;20197;-82
2021/08/13 10:48:25;;;;;;;9.00;6.45;;;;;;;;;;5091245;28;20188;-80
2021/08/13 10:50:56;;;;;;;9.10;6.15;;;;;;;;;;5089986;28;20225;-84
2021/08/13 10:53:30;;;;;;;7.68;6.20;;;;;;;;;;5090529;28;20233;-82
2021/08/13 10:55:58;;;;;;;7.70;6.07;;;;;;;;;;5090340;28;20245;-86
2021/08/13 10:58:43;;;;;;;10.90;5.97;;;;;;;;;;5090431;28;20233;-82
2021/08/13 11:01:12;;;;;;;6.93;5.65;;;;;;;;;;5089693;28;20228;-83
2021/08/13 11:03:39;;;;;;;8.35;5.53;;;;;;;;;;5091336;28;20256;-82
2021/08/13 11:06:06;;;;;;;6.72;6.00;;;;;;;;;;5091520;28;20233;-80
2021/08/13 11:08:51;;;;;;;9.35;5.55;;;;;;;;;;5091759;28;20743;-79
2021/08/13 11:11:18;;;;;;;8.55;5.22;;;;;;;;;;5089267;28;20268;-79
2021/08/13 11:13:47;;;;;;;6.30;5.70;;;;;;;;;;5091206;28;20249;-81
2021/08/13 11:16:32;;;;;;;8.57;6.10;;;;;;;;;;5091012;28;20253;-79
2021/08/13 11:19:00;;;;;;;9.98;6.18;;;;;;;;;;5089911;28;20233;-81
2021/08/13 11:21:31;;;;;;;6.63;6.03;;;;;;;;;;5089344;28;20241;-84
2021/08/13 11:23:59;;;;;;;12.93;7.60;;;;;;;;;;5089316;28;20229;-81
2021/08/13 11:26:40;;;;;;;6.35;5.75;;;;;;;;;;5091211;28;20220;-81
2021/08/13 11:29:26;;;;;;;9.57;6.07;;;;;;;;;;5090663;28;20226;-82
2021/08/13 11:31:52;;;;;;;8.75;5.45;;;;;;;;;;5089554;28;20209;-81
2021/08/13 11:34:34;;;;;;;6.72;5.75;;;;;;;;;;5089927;28;20661;-81
2021/08/13 11:37:02;;;;;;;8.40;5.43;;;;;;;;;;5092049;28;20252;-79
2021/08/13 11:39:36;;;;;;;7.78;5.45;;;;;;;;;;5093378;28;20233;-80
2021/08/13 11:42:04;;;;;;;6.35;5.40;;;;;;;;;;5094647;28;20249;-83
2021/08/13 11:44:30;;;;;;;6.50;5.40;;;;;;;;;;5095070;28;20210;-81
2021/08/13 11:46:58;;;;;;;8.65;5.40;;;;;;;;;;5093791;28;20217;-80
2021/08/13 11:49:25;;;;;;;7.28;5.55;;;;;;;;;;5094689;28;20248;-83
2021/08/13 11:51:52;;;;;;;10.55;5.57;;;;;;;;;;5092657;28;20221;-81
2021/08/13 11:54:27;;;;;;;5.93;5.40;;;;;;;;;;5095000;28;20241;-80
2021/08/13 11:56:54;;;;;;;8.18;5.15;;;;;;;;;;5094682;28;20685;-82
2021/08/13 11:59:20;;;;;;;9.13;5.63;;;;;;;;;;5093212;28;20233;-82
2021/08/13 12:01:48;;;;;;;6.43;5.43;;;;;;;;;;5094301;28;20214;-82
2021/08/13 12:04:18;;;;;;;7.10;5.78;;;;;;;;;;5093458;28;20296;-83
2021/08/13 12:07:01;;;;;;;5.95;5.38;;;;;;;;;;5094835;28;20229;-82
2021/08/13 12:09:37;;;;;;;9.10;5.75;;;;;;;;;;5093234;28;20255;-83
2021/08/13 12:12:04;;;;;;;6.65;5.53;;;;;;;;;;5094325;28;20243;-82
2021/08/13 12:14:30;;;;;;;12.20;5.43;;;;;;;;;;5093485;28;20223;-82
2021/08/13 12:16:58;;;;;;;9.45;5.47;;;;;;;;;;5094383;28;20249;-84
2021/08/13 12:19:24;;;;;;;6.82;5.70;;;;;;;;;;5093157;28;20197;-85
2021/08/13 12:21:52;;;;;;;6.35;5.75;;;;;;;;;;5094635;28;20579;-86
2021/08/13 12:24:28;;;;;;;7.20;5.50;;;;;;;;;;5092810;28;20198;-85
2021/08/13 12:26:57;;;;;;;6.43;5.35;;;;;;;;;;5093669;28;20303;-86
2021/08/13 12:29:25;;;;;;;5.82;5.30;;;;;;;;;;5093962;28;20240;-84
2021/08/13 12:31:55;;;;;;;6.35;5.30;;;;;;;;;;5092195;28;20259;-84
2021/08/13 12:34:22;;;;;;;7.25;5.53;;;;;;;;;;5093455;28;20295;-84
2021/08/13 12:37:00;;;;;;;8.40;5.10;;;;;;;;;;5091801;28;20233;-85
2021/08/13 12:39:27;;;;;;;8.57;4.97;;;;;;;;;;5093305;28;20240;-84
2021/08/13 12:41:53;;;;;;;6.93;5.55;;;;;;;;;;5093125;28;20610;-86
2021/08/13 12:44:21;;;;;;;9.38;6.13;;;;;;;;;;5092030;28;20244;-84
2021/08/13 12:46:48;;;;;;;6.95;5.45;;;;;;;;;;5091667;28;20202;-84
2021/08/13 12:49:15;;;;;;;7.75;5.13;;;;;;;;;;5092229;28;20217;-82
2021/08/13 12:51:42;;;;;;;8.57;5.47;;;;;;;;;;5093084;28;20477;-83
2021/08/13 12:54:24;;;;;;;5.50;5.10;;;;;;;;;;5093374;28;20255;-82
2021/08/13 12:56:56;;;;;;;5.43;4.95;;;;;;;;;;5092970;28;20253;-85
2021/08/13 12:59:30;;;;;;;6.22;5.30;;;;;;;;;;5091511;28;20278;-83
2021/08/13 13:01:57;;;;;;;9.43;5.65;;;;;;;;;;5091528;28;20252;-83
2021/08/13 13:04:34;;;;;;;5.90;5.32;;;;;;;;;;5092895;28;20268;-83
2021/08/13 13:07:01;;;;;;;8.45;5.38;;;;;;;;;;5091984;28;20217;-83
2021/08/13 13:09:29;;;;;;;5.55;5.03;;;;;;;;;;5092076;28;20198;-84
2021/08/13 13:12:10;;;;;;;8.18;5.40;;;;;;;;;;5090979;28;20209;-84
2021/08/13 13:14:38;;;;;;;6.47;5.03;;;;;;;;;;5093599;28;20629;-83
2021/08/13 13:17:05;;;;;;;5.82;5.18;;;;;;;;;;5090931;28;20628;-87
2021/08/13 13:19:32;;;;;;;7.00;5.15;;;;;;;;;;5091565;28;20221;-85
2021/08/13 13:22:14;;;;;;;5.45;5.05;;;;;;;;;;5091314;28;20225;-84
2021/08/13 13:24:41;;;;;;;5.35;4.85;;;;;;;;;;5091737;28;20202;-86
2021/08/13 13:27:07;;;;;;;7.97;4.72;;;;;;;;;;5092862;28;20233;-87
2021/08/13 13:29:35;;;;;;;10.88;4.85;;;;;;;;;;5091434;28;20194;-86
2021/08/13 13:32:12;;;;;;;6.43;4.53;;;;;;;;;;5092421;28;20241;-86
2021/08/13 13:34:39;;;;;;;5.68;5.18;;;;;;;;;;5090421;28;20227;-85
2021/08/13 13:37:15;;;;;;;4.90;4.50;;;;;;;;;;5091230;28;20245;-86
2021/08/13 13:39:42;;;;;;;5.20;4.70;;;;;;;;;;5093064;28;20237;-86
2021/08/13 13:42:09;;;;;;;9.48;4.97;;;;;;;;;;5090632;28;20738;-87
2021/08/13 13:44:35;;;;;;;7.80;4.70;;;;;;;;;;5092911;28;20182;-85
2021/08/13 13:47:02;;;;;;;5.82;4.90;;;;;;;;;;5091242;28;20198;-86
2021/08/13 13:49:30;;;;;;;11.00;4.85;;;;;;;;;;5090940;28;20206;-86
2021/08/13 13:51:57;;;;;;;8.20;4.70;;;;;;;;;;5091213;28;20714;-86
2021/08/13 13:54:24;;;;;;;5.20;4.70;;;;;;;;;;5091068;28;20240;-86
2021/08/13 13:56:51;;;;;;;5.75;4.60;;;;;;;;;;5092235;28;20218;-86
2021/08/13 13:59:17;;;;;;;5.22;4.50;;;;;;;;;;5089908;28;20295;-88
2021/08/13 14:01:44;;;;;;;5.38;4.50;;;;;;;;;;5091918;28;20244;-85
2021/08/13 14:04:11;;;;;;;7.63;4.80;;;;;;;;;;5090057;28;20229;-87
2021/08/13 14:06:39;;;;;;;5.28;4.78;;;;;;;;;;5090966;28;20273;-86
2021/08/13 14:09:06;;;;;;;4.72;4.32;;;;;;;;;;5092395;28;20240;-86
2021/08/13 14:11:32;;;;;;;4.85;4.43;;;;;;;;;;5092689;28;20221;-86
2021/08/13 14:14:01;;;;;;;6.60;4.40;;;;;;;;;;5091309;28;20262;-87
2021/08/13 14:16:27;;;;;;;4.57;4.28;;;;;;;;;;5090969;28;20319;-87
2021/08/13 14:18:54;;;;;;;8.88;4.75;;;;;;;;;;5092446;28;20669;-85
2021/08/13 14:21:21;;;;;;;4.47;4.18;;;;;;;;;;5092868;28;20697;-86
2021/08/13 14:23:49;;;;;;;5.38;4.07;;;;;;;;;;5092490;28;20218;-88
2021/08/13 14:26:15;;;;;;;33.25;4.60;;;;;;;;;;5091292;28;20200;-84
2021/08/13 14:28:42;;;;;;;5.10;4.20;;;;;;;;;;5090802;28;20221;-81
2021/08/13 14:31:10;;;;;;;5.03;4.63;;;;;;;;;;5090966;28;20239;-85
2021/08/13 14:33:37;;;;;;;5.82;4.35;;;;;;;;;;5090729;28;20282;-86
2021/08/13 14:36:04;;;;;;;5.57;4.45;;;;;;;;;;5091005;28;20194;-87
2021/08/13 14:38:30;;;;;;;8.63;4.32;;;;;;;;;;5092543;28;20668;-85